createdAt,value
2023-03-27T00:00:19.196Z,446.00
2023-03-27T00:01:19.247Z,443.00
2023-03-27T00:02:19.353Z,440.00
2023-03-27T00:03:19.398Z,440.00
2023-03-27T00:04:19.405Z,440.00
2023-03-27T00:05:19.385Z,442.00
2023-03-27T00:06:19.435Z,441.00
2023-03-27T00:07:19.465Z,442.00
2023-03-27T00:08:19.588Z,445.00
2023-03-27T00:09:19.550Z,446.00
2023-03-27T00:10:19.634Z,446.00
2023-03-27T00:11:20.148Z,447.00
2023-03-27T00:12:19.662Z,445.00
2023-03-27T00:13:19.695Z,445.00
2023-03-27T00:14:19.747Z,445.00
2023-03-27T00:15:19.799Z,445.00
2023-03-27T00:16:19.869Z,447.00
2023-03-27T00:17:19.954Z,445.00
2023-03-27T00:18:19.912Z,446.00
2023-03-27T00:19:19.974Z,446.00
2023-03-27T00:20:20.000Z,446.00
2023-03-27T00:21:20.039Z,447.00
2023-03-27T00:22:20.085Z,449.00
2023-03-27T00:23:20.152Z,447.00
2023-03-27T00:24:20.173Z,445.00
2023-03-27T00:25:20.226Z,447.00
2023-03-27T00:26:20.277Z,447.00
2023-03-27T00:27:20.301Z,446.00
2023-03-27T00:28:20.359Z,443.00
2023-03-27T00:29:20.400Z,443.00
2023-03-27T00:30:20.458Z,443.00
2023-03-27T00:31:20.543Z,441.00
2023-03-27T00:32:20.539Z,441.00
2023-03-27T00:33:20.587Z,441.00
2023-03-27T00:34:20.639Z,442.00
2023-03-27T00:35:20.708Z,442.00
2023-03-27T00:36:20.721Z,442.00
2023-03-27T00:37:20.762Z,445.00
2023-03-27T00:38:20.804Z,446.00
2023-03-27T00:39:20.848Z,446.00
2023-03-27T00:40:20.905Z,446.00
2023-03-27T00:41:21.033Z,445.00
2023-03-27T00:42:21.003Z,445.00
2023-03-27T00:43:21.050Z,446.00
2023-03-27T00:44:21.101Z,446.00
2023-03-27T00:45:21.147Z,445.00
2023-03-27T00:46:21.292Z,445.00
2023-03-27T00:47:21.241Z,444.00
2023-03-27T00:48:21.292Z,442.00
2023-03-27T00:49:21.423Z,440.00
2023-03-27T00:50:21.393Z,439.00
2023-03-27T00:51:21.467Z,440.00
2023-03-27T00:52:21.494Z,441.00
2023-03-27T00:53:21.539Z,442.00
2023-03-27T00:54:21.581Z,440.00
2023-03-27T00:55:21.637Z,442.00
2023-03-27T00:56:21.756Z,445.00
2023-03-27T00:57:21.725Z,446.00
2023-03-27T00:58:21.773Z,446.00
2023-03-27T00:59:21.819Z,448.00
2023-03-27T01:00:22.639Z,449.00
2023-03-27T01:01:21.963Z,450.00
2023-03-27T01:02:22.030Z,451.00
2023-03-27T01:03:22.079Z,449.00
2023-03-27T01:04:22.053Z,447.00
2023-03-27T01:05:22.098Z,446.00
2023-03-27T01:06:22.176Z,445.00
2023-03-27T01:07:22.203Z,446.00
2023-03-27T01:08:22.265Z,446.00
2023-03-27T01:09:22.370Z,447.00
2023-03-27T01:10:22.368Z,445.00
2023-03-27T01:11:22.458Z,447.00
2023-03-27T01:12:23.210Z,448.00
2023-03-27T01:13:22.524Z,450.00
2023-03-27T01:14:22.556Z,450.00
2023-03-27T01:15:23.145Z,449.00
2023-03-27T01:16:22.673Z,448.00
2023-03-27T01:17:22.746Z,445.00
2023-03-27T01:18:22.738Z,444.00
2023-03-27T01:19:22.790Z,444.00
2023-03-27T01:20:22.833Z,442.00
2023-03-27T01:21:22.884Z,441.00
2023-03-27T01:22:22.955Z,440.00
2023-03-27T01:23:35.505Z,439.00
2023-03-27T01:24:24.161Z,438.00
2023-03-27T01:25:22.963Z,437.00
2023-03-27T01:26:35.601Z,438.00
2023-03-27T01:27:23.967Z,437.00
2023-03-27T01:28:22.955Z,440.00
2023-03-27T01:29:22.951Z,443.00
2023-03-27T01:30:22.986Z,443.00
2023-03-27T01:31:22.969Z,445.00
2023-03-27T01:32:23.013Z,446.00
2023-03-27T01:33:22.912Z,445.00
2023-03-27T01:34:22.904Z,445.00
2023-03-27T01:35:22.941Z,444.00
2023-03-27T01:36:22.887Z,444.00
2023-03-27T01:37:22.880Z,445.00
2023-03-27T01:38:22.902Z,444.00
2023-03-27T01:39:22.942Z,443.00
2023-03-27T01:40:22.989Z,443.00
2023-03-27T01:41:23.015Z,445.00
2023-03-27T01:42:23.052Z,446.00
2023-03-27T01:43:23.116Z,444.00
2023-03-27T01:44:23.142Z,444.00
2023-03-27T01:45:24.162Z,444.00
2023-03-27T01:46:23.248Z,442.00
2023-03-27T01:47:23.705Z,441.00
2023-03-27T01:48:23.308Z,439.00
2023-03-27T01:49:23.338Z,436.00
2023-03-27T01:50:23.376Z,434.00
2023-03-27T01:51:23.459Z,436.00
2023-03-27T01:52:23.439Z,435.00
2023-03-27T01:53:23.474Z,437.00
2023-03-27T01:54:23.523Z,437.00
2023-03-27T01:55:23.564Z,439.00
2023-03-27T01:56:23.660Z,440.00
2023-03-27T01:57:23.641Z,441.00
2023-03-27T01:58:23.694Z,442.00
2023-03-27T01:59:23.838Z,443.00
2023-03-27T02:00:23.750Z,444.00
2023-03-27T02:01:23.812Z,442.00
2023-03-27T02:02:23.877Z,442.00
2023-03-27T02:03:23.909Z,443.00
2023-03-27T02:04:23.980Z,443.00
2023-03-27T02:05:23.974Z,443.00
2023-03-27T02:06:24.019Z,443.00
2023-03-27T02:07:24.089Z,442.00
2023-03-27T02:08:24.137Z,438.00
2023-03-27T02:09:24.173Z,438.00
2023-03-27T02:10:24.217Z,438.00
2023-03-27T02:11:24.257Z,440.00
2023-03-27T02:12:24.302Z,441.00
2023-03-27T02:13:24.334Z,443.00
2023-03-27T02:14:24.373Z,442.00
2023-03-27T02:15:26.268Z,443.00
2023-03-27T02:16:24.471Z,440.00
2023-03-27T02:17:24.522Z,440.00
2023-03-27T02:18:24.510Z,442.00
2023-03-27T02:19:24.554Z,445.00
2023-03-27T02:20:24.678Z,446.00
2023-03-27T02:21:24.631Z,444.00
2023-03-27T02:22:37.498Z,444.00
2023-03-27T02:23:25.666Z,444.00
2023-03-27T02:24:24.666Z,444.00
2023-03-27T02:25:24.664Z,443.00
2023-03-27T02:26:24.646Z,443.00
2023-03-27T02:27:24.662Z,446.00
2023-03-27T02:28:24.628Z,442.00
2023-03-27T02:29:24.621Z,441.00
2023-03-27T02:30:24.614Z,442.00
2023-03-27T02:31:32.601Z,443.00
2023-03-27T02:32:25.662Z,446.00
2023-03-27T02:33:24.598Z,446.00
2023-03-27T02:34:24.600Z,446.00
2023-03-27T02:35:24.610Z,446.00
2023-03-27T02:36:24.638Z,446.00
2023-03-27T02:37:32.372Z,448.00
2023-03-27T02:38:25.674Z,446.00
2023-03-27T02:39:24.688Z,444.00
2023-03-27T02:40:24.695Z,443.00
2023-03-27T02:41:24.707Z,446.00
2023-03-27T02:42:24.725Z,447.00
2023-03-27T02:43:24.750Z,446.00
2023-03-27T02:44:24.782Z,445.00
2023-03-27T02:45:24.810Z,447.00
2023-03-27T02:46:24.894Z,448.00
2023-03-27T02:47:24.901Z,447.00
2023-03-27T02:48:24.872Z,446.00
2023-03-27T02:49:24.887Z,444.00
2023-03-27T02:50:24.936Z,443.00
2023-03-27T02:51:24.934Z,439.00
2023-03-27T02:52:24.967Z,439.00
2023-03-27T02:53:24.981Z,435.00
2023-03-27T02:54:25.006Z,434.00
2023-03-27T02:55:25.011Z,434.00
2023-03-27T02:56:25.010Z,435.00
2023-03-27T02:57:25.341Z,437.00
2023-03-27T02:58:25.034Z,437.00
2023-03-27T02:59:25.080Z,437.00
2023-03-27T03:00:25.097Z,439.00
2023-03-27T03:01:25.146Z,440.00
2023-03-27T03:02:25.189Z,440.00
2023-03-27T03:03:25.168Z,441.00
2023-03-27T03:04:25.177Z,441.00
2023-03-27T03:05:25.113Z,442.00
2023-03-27T03:06:25.138Z,442.00
2023-03-27T03:07:25.144Z,441.00
2023-03-27T03:08:25.146Z,440.00
2023-03-27T03:09:25.157Z,440.00
2023-03-27T03:10:25.169Z,441.00
2023-03-27T03:11:25.163Z,442.00
2023-03-27T03:12:25.162Z,440.00
2023-03-27T03:13:25.188Z,441.00
2023-03-27T03:14:25.181Z,441.00
2023-03-27T03:15:25.179Z,442.00
2023-03-27T03:16:25.184Z,441.00
2023-03-27T03:17:25.203Z,443.00
2023-03-27T03:18:25.193Z,444.00
2023-03-27T03:19:25.186Z,444.00
2023-03-27T03:20:25.176Z,444.00
2023-03-27T03:21:25.182Z,446.00
2023-03-27T03:22:25.181Z,446.00
2023-03-27T03:23:25.175Z,446.00
2023-03-27T03:24:25.197Z,447.00
2023-03-27T03:25:25.183Z,446.00
2023-03-27T03:26:25.177Z,445.00
2023-03-27T03:27:25.173Z,444.00
2023-03-27T03:28:25.231Z,448.00
2023-03-27T03:29:25.190Z,447.00
2023-03-27T03:30:25.201Z,445.00
2023-03-27T03:31:25.212Z,445.00
2023-03-27T03:32:25.230Z,442.00
2023-03-27T03:33:25.192Z,443.00
2023-03-27T03:34:25.203Z,440.00
2023-03-27T03:35:25.260Z,439.00
2023-03-27T03:36:25.224Z,442.00
2023-03-27T03:37:25.221Z,442.00
2023-03-27T03:38:25.223Z,440.00
2023-03-27T03:39:25.245Z,442.00
2023-03-27T03:40:25.250Z,442.00
2023-03-27T03:41:25.260Z,444.00
2023-03-27T03:43:25.262Z,446.00
2023-03-27T03:44:25.724Z,446.00
2023-03-27T03:45:25.277Z,445.00
2023-03-27T03:47:25.293Z,442.00
2023-03-27T03:48:25.331Z,441.00
2023-03-27T03:49:25.302Z,440.00
2023-03-27T03:50:25.728Z,440.00
2023-03-27T03:51:25.284Z,440.00
2023-03-27T03:52:25.284Z,442.00
2023-03-27T03:53:25.286Z,442.00
2023-03-27T03:54:25.286Z,445.00
2023-03-27T03:55:25.289Z,443.00
2023-03-27T03:56:25.273Z,444.00
2023-03-27T03:57:25.291Z,445.00
2023-03-27T03:59:25.332Z,445.00
2023-03-27T04:00:25.720Z,444.00
2023-03-27T04:01:25.317Z,444.00
2023-03-27T04:03:25.397Z,444.00
2023-03-27T04:04:25.305Z,443.00
2023-03-27T04:05:25.318Z,442.00
2023-03-27T04:07:25.319Z,440.00
2023-03-27T04:08:25.319Z,442.00
2023-03-27T04:09:25.308Z,441.00
2023-03-27T04:11:25.313Z,442.00
2023-03-27T04:12:25.322Z,444.00
2023-03-27T04:13:25.339Z,442.00
2023-03-27T04:15:25.350Z,442.00
2023-03-27T04:16:25.359Z,443.00
2023-03-27T04:17:25.416Z,443.00
2023-03-27T04:18:25.401Z,444.00
2023-03-27T04:19:26.218Z,442.00
2023-03-27T04:20:25.344Z,441.00
2023-03-27T04:21:25.357Z,442.00
2023-03-27T04:22:25.358Z,442.00
2023-03-27T04:23:25.359Z,439.00
2023-03-27T04:24:25.364Z,438.00
2023-03-27T04:25:26.218Z,438.00
2023-03-27T04:27:25.372Z,433.00
2023-03-27T04:28:25.374Z,433.00
2023-03-27T04:29:25.425Z,434.00
2023-03-27T04:31:25.393Z,435.00
2023-03-27T04:32:25.505Z,432.00
2023-03-27T04:33:25.405Z,431.00
2023-03-27T04:34:26.405Z,430.00
2023-03-27T04:35:25.422Z,431.00
2023-03-27T04:36:25.518Z,433.00
2023-03-27T04:37:25.381Z,433.00
2023-03-27T04:38:25.384Z,432.00
2023-03-27T04:39:25.418Z,432.00
2023-03-27T04:40:25.360Z,432.00
2023-03-27T04:41:26.230Z,431.00
2023-03-27T04:43:25.353Z,432.00
2023-03-27T04:44:25.346Z,435.00
2023-03-27T04:45:25.330Z,438.00
2023-03-27T04:47:25.388Z,436.00
2023-03-27T04:48:26.232Z,436.00
2023-03-27T04:49:25.296Z,437.00
2023-03-27T04:51:25.282Z,441.00
2023-03-27T04:52:25.285Z,440.00
2023-03-27T04:53:25.274Z,440.00
2023-03-27T04:55:25.360Z,439.00
2023-03-27T04:56:25.258Z,439.00
2023-03-27T04:57:25.250Z,442.00
2023-03-27T04:59:25.260Z,444.00
2023-03-27T05:00:25.300Z,443.00
2023-03-27T05:01:25.427Z,442.00
2023-03-27T05:03:25.318Z,442.00
2023-03-27T05:04:25.318Z,442.00
2023-03-27T05:05:25.342Z,441.00
2023-03-27T05:06:25.351Z,442.00
2023-03-27T05:07:25.369Z,442.00
2023-03-27T05:08:25.444Z,440.00
2023-03-27T05:09:25.469Z,437.00
2023-03-27T05:10:25.492Z,440.00
2023-03-27T05:11:25.499Z,440.00
2023-03-27T05:12:25.518Z,439.00
2023-03-27T05:13:25.515Z,440.00
2023-03-27T05:14:25.537Z,440.00
2023-03-27T05:15:25.555Z,441.00
2023-03-27T05:16:25.599Z,442.00
2023-03-27T05:17:25.598Z,443.00
2023-03-27T05:18:25.598Z,444.00
2023-03-27T05:19:26.746Z,442.00
2023-03-27T05:20:25.686Z,461.00
2023-03-27T05:21:25.706Z,475.00
2023-03-27T05:22:25.719Z,484.00
2023-03-27T05:23:25.735Z,494.00
2023-03-27T05:24:25.755Z,533.00
2023-03-27T05:25:25.760Z,609.00
2023-03-27T05:26:25.769Z,608.00
2023-03-27T05:27:25.782Z,630.00
2023-03-27T05:28:25.772Z,669.00
2023-03-27T05:29:25.768Z,704.00
2023-03-27T05:30:25.849Z,742.00
2023-03-27T05:31:25.856Z,847.00
2023-03-27T05:32:25.928Z,872.00
2023-03-27T05:33:26.291Z,890.00
2023-03-27T05:34:25.992Z,954.00
2023-03-27T05:35:26.091Z,977.00
2023-03-27T05:36:26.094Z,1005.00
2023-03-27T05:37:27.435Z,1026.00
2023-03-27T05:38:26.190Z,1084.00
2023-03-27T05:39:26.235Z,1098.00
2023-03-27T05:40:26.294Z,1128.00
2023-03-27T05:41:26.313Z,1157.00
2023-03-27T05:42:26.352Z,1172.00
2023-03-27T05:43:26.393Z,1241.00
2023-03-27T05:44:26.421Z,1262.00
2023-03-27T05:45:26.445Z,1291.00
2023-03-27T05:46:26.518Z,1338.00
2023-03-27T05:47:26.515Z,1367.00
2023-03-27T05:48:26.518Z,1386.00
2023-03-27T05:49:26.519Z,1405.00
2023-03-27T05:50:26.542Z,1438.00
2023-03-27T05:51:26.550Z,1487.00
2023-03-27T05:52:28.796Z,1509.00
2023-03-27T05:53:29.013Z,1527.00
2023-03-27T05:54:26.640Z,1548.00
2023-03-27T05:55:27.944Z,1572.00
2023-03-27T05:56:26.632Z,1596.00
2023-03-27T05:57:26.633Z,1648.00
2023-03-27T05:59:26.624Z,1689.00
2023-03-27T06:00:26.622Z,1702.00
2023-03-27T06:01:26.619Z,1731.00
2023-03-27T06:03:27.364Z,1812.00
2023-03-27T06:04:26.668Z,1823.00
2023-03-27T06:05:26.795Z,1852.00
2023-03-27T06:07:26.724Z,1916.00
2023-03-27T06:08:26.733Z,1934.00
2023-03-27T06:09:26.755Z,1968.00
2023-03-27T06:10:26.801Z,2004.00
2023-03-27T06:11:26.855Z,2019.00
2023-03-27T06:12:26.915Z,2041.00
2023-03-27T06:13:26.953Z,2099.00
2023-03-27T06:14:27.010Z,2108.00
2023-03-27T06:15:27.071Z,2125.00
2023-03-27T06:16:27.276Z,2188.00
2023-03-27T06:17:27.192Z,2193.00
2023-03-27T06:18:27.240Z,2219.00
2023-03-27T06:19:27.327Z,2235.00
2023-03-27T06:20:27.357Z,2248.00
2023-03-27T06:21:27.426Z,2296.00
2023-03-27T06:22:27.463Z,2312.00
2023-03-27T06:23:27.527Z,2363.00
2023-03-27T06:24:27.572Z,2423.00
2023-03-27T06:25:27.639Z,2461.00
2023-03-27T06:26:27.680Z,2455.00
2023-03-27T06:27:27.718Z,1374.00
2023-03-27T06:28:27.731Z,1032.00
2023-03-27T06:29:27.760Z,877.00
2023-03-27T06:30:27.816Z,969.00
2023-03-27T06:31:27.856Z,960.00
2023-03-27T06:32:27.875Z,835.00
2023-03-27T06:33:27.856Z,813.00
2023-03-27T06:34:27.856Z,840.00
2023-03-27T06:35:27.928Z,861.00
2023-03-27T06:36:28.029Z,867.00
2023-03-27T06:37:27.972Z,894.00
2023-03-27T06:38:27.978Z,993.00
2023-03-27T06:39:28.773Z,1038.00
2023-03-27T06:40:28.216Z,1088.00
2023-03-27T06:41:28.101Z,1110.00
2023-03-27T06:42:28.126Z,1124.00
2023-03-27T06:43:28.145Z,1191.00
2023-03-27T06:44:28.201Z,1235.00
2023-03-27T06:45:28.190Z,1260.00
2023-03-27T06:46:42.815Z,1273.00
2023-03-27T06:47:29.391Z,1288.00
2023-03-27T06:48:28.445Z,1364.00
2023-03-27T06:49:28.389Z,1511.00
2023-03-27T06:50:28.413Z,1489.00
2023-03-27T06:51:28.410Z,1472.00
2023-03-27T06:52:28.433Z,1470.00
2023-03-27T06:53:29.549Z,1486.00
2023-03-27T06:54:28.800Z,1505.00
2023-03-27T06:55:28.657Z,1517.00
2023-03-27T06:56:28.582Z,1540.00
2023-03-27T06:57:28.579Z,1620.00
2023-03-27T06:58:28.612Z,1690.00
2023-03-27T06:59:28.609Z,1684.00
2023-03-27T07:00:28.654Z,1684.00
2023-03-27T07:01:28.716Z,1691.00
2023-03-27T07:02:28.759Z,1701.00
2023-03-27T07:03:28.776Z,1722.00
2023-03-27T07:04:28.833Z,1765.00
2023-03-27T07:05:29.003Z,1789.00
2023-03-27T07:06:28.953Z,1810.00
2023-03-27T07:07:29.019Z,1836.00
2023-03-27T07:08:29.064Z,1867.00
2023-03-27T07:09:29.102Z,1903.00
2023-03-27T07:10:29.157Z,1917.00
2023-03-27T07:11:31.695Z,1932.00
2023-03-27T07:12:29.181Z,1943.00
2023-03-27T07:13:29.181Z,1959.00
2023-03-27T07:15:29.169Z,2034.00
2023-03-27T07:16:29.201Z,2079.00
2023-03-27T07:17:41.875Z,2088.00
2023-03-27T07:18:30.177Z,2084.00
2023-03-27T07:19:29.139Z,2081.00
2023-03-27T07:20:29.238Z,2073.00
2023-03-27T07:21:29.132Z,2051.00
2023-03-27T07:23:29.127Z,2012.00
2023-03-27T07:24:29.139Z,1998.00
2023-03-27T07:25:29.786Z,1995.00
2023-03-27T07:27:29.161Z,1966.00
2023-03-27T07:28:29.786Z,1964.00
2023-03-27T07:29:29.262Z,1963.00
2023-03-27T07:30:29.296Z,1952.00
2023-03-27T07:31:42.409Z,1943.00
2023-03-27T07:32:37.280Z,1934.00
2023-03-27T07:33:30.407Z,1926.00
2023-03-27T07:35:29.323Z,1911.00
2023-03-27T07:36:29.294Z,1903.00
2023-03-27T07:37:29.272Z,1900.00
2023-03-27T07:39:29.264Z,1889.00
2023-03-27T07:40:38.929Z,1887.00
2023-03-27T07:41:30.268Z,1883.00
2023-03-27T07:43:29.754Z,1866.00
2023-03-27T07:44:29.213Z,1852.00
2023-03-27T07:45:29.221Z,1846.00
2023-03-27T07:46:29.268Z,1838.00
2023-03-27T07:47:29.282Z,1828.00
2023-03-27T07:48:29.195Z,1825.00
2023-03-27T07:49:38.865Z,1822.00
2023-03-27T07:50:30.180Z,1813.00
2023-03-27T07:51:29.163Z,1805.00
2023-03-27T07:52:29.160Z,1801.00
2023-03-27T07:53:33.318Z,1798.00
2023-03-27T07:54:30.164Z,1795.00
2023-03-27T07:55:29.151Z,1785.00
2023-03-27T07:56:29.134Z,1783.00
2023-03-27T07:57:29.275Z,1776.00
2023-03-27T07:59:29.115Z,1756.00
2023-03-27T08:00:29.109Z,1746.00
2023-03-27T08:01:29.093Z,1739.00
2023-03-27T08:03:29.238Z,1733.00
2023-03-27T08:04:29.179Z,1731.00
2023-03-27T08:05:29.070Z,1729.00
2023-03-27T08:06:29.805Z,1728.00
2023-03-27T08:07:29.050Z,1725.00
2023-03-27T08:08:29.042Z,1722.00
2023-03-27T08:09:29.038Z,1715.00
2023-03-27T08:11:31.053Z,1711.00
2023-03-27T08:12:29.044Z,1684.00
2023-03-27T08:13:29.095Z,1716.00
2023-03-27T08:14:29.132Z,1773.00
2023-03-27T08:15:29.158Z,1792.00
2023-03-27T08:16:29.249Z,1838.00
2023-03-27T08:17:29.331Z,1905.00
2023-03-27T08:18:29.245Z,1828.00
2023-03-27T08:19:29.293Z,1862.00
2023-03-27T08:20:29.328Z,1891.00
2023-03-27T08:21:29.491Z,1887.00
2023-03-27T08:23:29.379Z,1887.00
2023-03-27T08:24:29.402Z,1894.00
2023-03-27T08:25:29.413Z,1944.00
2023-03-27T08:26:29.445Z,1954.00
2023-03-27T08:27:30.315Z,1968.00
2023-03-27T08:28:29.450Z,1594.00
2023-03-27T08:29:29.555Z,1345.00
2023-03-27T08:30:29.556Z,1182.00
2023-03-27T08:31:29.613Z,1162.00
2023-03-27T08:32:29.609Z,1224.00
2023-03-27T08:33:29.693Z,1295.00
2023-03-27T08:34:29.768Z,1434.00
2023-03-27T08:35:30.254Z,1488.00
2023-03-27T08:36:29.733Z,1509.00
2023-03-27T08:37:29.826Z,1526.00
2023-03-27T08:39:29.747Z,1597.00
2023-03-27T08:40:29.811Z,1612.00
2023-03-27T08:41:29.850Z,1618.00
2023-03-27T08:42:29.911Z,1632.00
2023-03-27T08:43:29.954Z,1673.00
2023-03-27T08:44:30.009Z,1698.00
2023-03-27T08:45:30.015Z,1735.00
2023-03-27T08:46:30.097Z,1747.00
2023-03-27T08:47:30.104Z,1778.00
2023-03-27T08:48:30.045Z,1814.00
2023-03-27T08:49:30.045Z,1830.00
2023-03-27T08:50:30.048Z,1849.00
2023-03-27T08:51:30.075Z,1904.00
2023-03-27T08:52:30.191Z,1930.00
2023-03-27T08:53:30.177Z,1942.00
2023-03-27T08:54:30.243Z,1983.00
2023-03-27T08:55:30.319Z,1994.00
2023-03-27T08:56:30.351Z,2005.00
2023-03-27T08:57:30.405Z,2027.00
2023-03-27T08:58:30.468Z,2042.00
2023-03-27T08:59:30.508Z,2101.00
2023-03-27T09:00:30.601Z,2121.00
2023-03-27T09:01:30.622Z,2135.00
2023-03-27T09:02:30.692Z,2147.00
2023-03-27T09:03:30.820Z,2177.00
2023-03-27T09:04:30.725Z,2213.00
2023-03-27T09:05:30.754Z,2232.00
2023-03-27T09:06:30.796Z,2260.00
2023-03-27T09:07:30.824Z,2295.00
2023-03-27T09:08:30.871Z,2307.00
2023-03-27T09:09:30.918Z,2357.00
2023-03-27T09:10:30.936Z,2390.00
2023-03-27T09:11:30.969Z,2402.00
2023-03-27T09:12:30.984Z,2420.00
2023-03-27T09:13:31.065Z,2477.00
2023-03-27T09:14:31.029Z,2499.00
2023-03-27T09:15:31.054Z,2520.00
2023-03-27T09:16:31.127Z,2539.00
2023-03-27T09:17:31.115Z,2591.00
2023-03-27T09:19:31.133Z,2606.00
2023-03-27T09:20:32.152Z,2615.00
2023-03-27T09:21:31.157Z,2605.00
2023-03-27T09:23:31.099Z,2660.00
2023-03-27T09:24:31.089Z,2714.00
2023-03-27T09:25:31.101Z,2736.00
2023-03-27T09:27:31.084Z,2806.00
2023-03-27T09:28:31.095Z,2859.00
2023-03-27T09:29:31.065Z,2869.00
2023-03-27T09:30:31.846Z,2871.00
2023-03-27T09:31:31.057Z,2880.00
2023-03-27T09:32:33.535Z,2913.00
2023-03-27T09:33:31.030Z,2921.00
2023-03-27T09:35:31.088Z,2946.00
2023-03-27T09:36:31.010Z,2975.00
2023-03-27T09:37:31.016Z,2992.00
2023-03-27T09:39:31.058Z,3015.00
2023-03-27T09:40:30.994Z,3022.00
2023-03-27T09:41:31.846Z,3034.00
2023-03-27T09:43:30.978Z,3094.00
2023-03-27T09:44:30.955Z,3113.00
2023-03-27T09:45:30.953Z,3133.00
2023-03-27T09:46:30.985Z,3190.00
2023-03-27T09:47:31.385Z,3189.00
2023-03-27T09:48:30.933Z,3201.00
2023-03-27T09:49:30.916Z,3217.00
2023-03-27T09:50:30.927Z,3248.00
2023-03-27T09:51:30.912Z,3271.00
2023-03-27T09:52:30.904Z,3289.00
2023-03-27T09:53:30.922Z,3309.00
2023-03-27T09:55:30.950Z,3358.00
2023-03-27T09:56:30.888Z,3365.00
2023-03-27T09:57:30.868Z,3375.00
2023-03-27T09:59:30.856Z,3399.00
2023-03-27T10:00:30.908Z,3417.00
2023-03-27T10:01:30.913Z,3435.00
2023-03-27T10:03:30.848Z,3463.00
2023-03-27T10:04:31.781Z,3477.00
2023-03-27T10:05:30.826Z,3508.00
2023-03-27T10:07:30.801Z,3538.00
2023-03-27T10:08:30.806Z,3546.00
2023-03-27T10:09:30.804Z,3562.00
2023-03-27T10:11:30.786Z,3602.00
2023-03-27T10:12:30.863Z,3648.00
2023-03-27T10:13:30.783Z,3634.00
2023-03-27T10:14:30.776Z,3641.00
2023-03-27T10:15:30.813Z,2887.00
2023-03-27T10:16:30.901Z,2542.00
2023-03-27T10:17:30.782Z,2434.00
2023-03-27T10:18:30.762Z,2030.00
2023-03-27T10:19:30.751Z,1995.00
2023-03-27T10:20:30.727Z,1962.00
2023-03-27T10:21:30.897Z,1832.00
2023-03-27T10:23:30.770Z,1821.00
2023-03-27T10:24:30.781Z,1822.00
2023-03-27T10:25:30.702Z,1660.00
2023-03-27T10:27:30.875Z,1626.00
2023-03-27T10:28:30.684Z,1568.00
2023-03-27T10:29:30.691Z,1819.00
2023-03-27T10:30:30.679Z,1825.00
2023-03-27T10:31:31.385Z,1855.00
2023-03-27T10:32:30.673Z,1868.00
2023-03-27T10:33:30.687Z,1877.00
2023-03-27T10:34:30.649Z,1891.00
2023-03-27T10:35:30.706Z,1898.00
2023-03-27T10:36:30.625Z,1913.00
2023-03-27T10:37:30.622Z,1983.00
2023-03-27T10:38:31.382Z,2016.00
2023-03-27T10:39:30.632Z,2066.00
2023-03-27T10:40:30.601Z,2164.00
2023-03-27T10:41:30.611Z,2233.00
2023-03-27T10:42:33.435Z,2252.00
2023-03-27T10:43:30.618Z,2313.00
2023-03-27T10:44:30.701Z,2345.00
2023-03-27T10:45:30.654Z,2376.00
2023-03-27T10:47:30.574Z,2467.00
2023-03-27T10:48:30.626Z,2506.00
2023-03-27T10:49:30.544Z,2544.00
2023-03-27T10:51:39.362Z,2585.00
2023-03-27T10:52:31.522Z,2609.00
2023-03-27T10:53:30.596Z,2634.00
2023-03-27T10:55:30.502Z,2742.00
2023-03-27T10:56:30.588Z,2767.00
2023-03-27T10:57:32.296Z,2790.00
2023-03-27T10:59:41.143Z,2855.00
2023-03-27T11:00:31.469Z,2885.00
2023-03-27T11:01:30.508Z,2966.00
2023-03-27T11:03:30.490Z,3079.00
2023-03-27T11:04:30.525Z,3091.00
2023-03-27T11:05:30.522Z,3102.00
2023-03-27T11:07:30.415Z,3092.00
2023-03-27T11:08:30.403Z,3090.00
2023-03-27T11:09:30.472Z,3056.00
2023-03-27T11:11:30.388Z,2992.00
2023-03-27T11:12:32.409Z,2977.00
2023-03-27T11:13:30.486Z,2956.00
2023-03-27T11:15:30.361Z,2945.00
2023-03-27T11:16:30.389Z,2940.00
2023-03-27T11:17:30.370Z,2925.00
2023-03-27T11:19:30.343Z,2915.00
2023-03-27T11:20:30.328Z,2907.00
2023-03-27T11:21:30.368Z,2897.00
2023-03-27T11:22:30.415Z,2889.00
2023-03-27T11:23:30.460Z,2885.00
2023-03-27T11:24:30.523Z,2884.00
2023-03-27T11:25:30.562Z,2880.00
2023-03-27T11:26:30.620Z,2874.00
2023-03-27T11:27:30.669Z,2871.00
2023-03-27T11:28:30.700Z,2863.00
2023-03-27T11:29:30.768Z,2860.00
2023-03-27T11:30:30.822Z,2854.00
2023-03-27T11:31:30.912Z,2849.00
2023-03-27T11:32:30.945Z,2842.00
2023-03-27T11:33:30.972Z,2837.00
2023-03-27T11:34:31.024Z,2837.00
2023-03-27T11:35:31.097Z,2833.00
2023-03-27T11:36:31.127Z,2829.00
2023-03-27T11:37:31.158Z,2820.00
2023-03-27T11:38:31.185Z,2819.00
2023-03-27T11:39:31.238Z,2816.00
2023-03-27T11:40:31.233Z,2806.00
2023-03-27T11:41:31.254Z,2801.00
2023-03-27T11:42:31.439Z,2796.00
2023-03-27T11:43:31.364Z,2790.00
2023-03-27T11:44:31.898Z,2779.00
2023-03-27T11:45:31.396Z,2767.00
2023-03-27T11:46:31.470Z,2770.00
2023-03-27T11:47:31.933Z,2766.00
2023-03-27T11:48:31.406Z,2765.00
2023-03-27T11:49:31.400Z,2759.00
2023-03-27T11:51:32.322Z,2746.00
2023-03-27T11:52:31.412Z,2700.00
2023-03-27T11:53:31.572Z,2623.00
2023-03-27T11:55:32.571Z,2527.00
2023-03-27T11:56:31.474Z,2460.00
2023-03-27T11:57:31.508Z,2439.00
2023-03-27T11:58:31.537Z,2210.00
2023-03-27T11:59:32.823Z,2236.00
2023-03-27T12:00:31.642Z,2188.00
2023-03-27T12:01:31.685Z,2152.00
2023-03-27T12:02:31.817Z,2082.00
2023-03-27T12:03:31.867Z,2050.00
2023-03-27T12:04:31.835Z,2053.00
2023-03-27T12:05:31.885Z,2042.00
2023-03-27T12:06:31.939Z,2026.00
2023-03-27T12:07:36.642Z,1936.00
2023-03-27T12:08:32.955Z,1924.00
2023-03-27T12:09:31.942Z,1922.00
2023-03-27T12:11:31.921Z,1921.00
2023-03-27T12:12:31.926Z,1912.00
2023-03-27T12:13:41.294Z,1901.00
2023-03-27T12:14:40.766Z,1893.00
2023-03-27T12:15:32.914Z,1887.00
2023-03-27T12:16:31.909Z,1878.00
2023-03-27T12:17:31.916Z,1867.00
2023-03-27T12:19:38.253Z,1871.00
2023-03-27T12:20:32.871Z,1870.00
2023-03-27T12:21:31.861Z,1866.00
2023-03-27T12:23:31.848Z,1860.00
2023-03-27T12:24:31.852Z,1857.00
2023-03-27T12:25:33.623Z,1853.00
2023-03-27T12:27:31.815Z,1852.00
2023-03-27T12:28:31.814Z,1851.00
2023-03-27T12:29:31.845Z,1847.00
2023-03-27T12:31:31.973Z,1831.00
2023-03-27T12:32:31.809Z,1829.00
2023-03-27T12:33:31.778Z,1829.00
2023-03-27T12:35:31.840Z,1820.00
2023-03-27T12:36:31.761Z,1811.00
2023-03-27T12:37:31.782Z,1810.00
2023-03-27T12:38:31.787Z,1809.00
2023-03-27T12:39:31.731Z,1806.00
2023-03-27T12:40:31.726Z,1807.00
2023-03-27T12:41:31.713Z,1809.00
2023-03-27T12:43:31.715Z,1810.00
2023-03-27T12:44:31.793Z,1808.00
2023-03-27T12:45:33.173Z,1799.00
2023-03-27T12:46:31.814Z,1794.00
2023-03-27T12:47:31.683Z,1791.00
2023-03-27T12:48:31.666Z,1796.00
2023-03-27T12:49:40.675Z,1793.00
2023-03-27T12:50:32.659Z,1787.00
2023-03-27T12:51:31.642Z,1789.00
2023-03-27T12:52:31.649Z,1790.00
2023-03-27T13:08:48.996Z,1861.00
2023-03-27T13:09:48.931Z,1846.00
2023-03-27T13:10:48.927Z,1834.00
2023-03-27T13:11:48.907Z,1829.00
2023-03-27T13:12:48.909Z,1821.00
2023-03-27T13:13:48.898Z,1828.00
2023-03-27T13:14:48.894Z,1828.00
2023-03-27T13:15:49.010Z,1832.00
2023-03-27T13:16:48.872Z,1829.00
2023-03-27T13:17:48.962Z,1830.00
2023-03-27T13:18:50.934Z,1828.00
2023-03-27T13:19:49.604Z,1819.00
2023-03-27T13:20:48.851Z,1811.00
2023-03-27T13:21:48.840Z,1810.00
2023-03-27T13:22:48.831Z,1805.00
2023-03-27T13:23:48.821Z,1799.00
2023-03-27T13:24:48.803Z,1797.00
2023-03-27T13:25:48.841Z,1793.00
2023-03-27T13:26:48.806Z,1790.00
2023-03-27T13:27:48.828Z,1785.00
2023-03-27T13:28:48.803Z,1785.00
2023-03-27T13:29:48.792Z,1783.00
2023-03-27T13:30:48.819Z,1778.00